sensor_id;sensor_type;location;lat;lon;timestamp;pressure;altitude;pressure_sealevel;temperature;humidity
39223;BME280;24936;46.328;11.026;2023-10-08T00:01:41;95300.25;;;9.16;100.00
39223;BME280;24936;46.328;11.026;2023-10-08T00:04:10;95297.56;;;9.05;100.00
39223;BME280;24936;46.328;11.026;2023-10-08T00:06:36;95296.66;;;8.93;100.00
39223;BME280;24936;46.328;11.026;2023-10-08T00:09:03;95302.03;;;8.91;100.00
39223;BME280;24936;46.328;11.026;2023-10-08T00:11:35;95301.63;;;8.84;100.00
39223;BME280;24936;46.328;11.026;2023-10-08T00:14:01;95301.38;;;8.87;100.00
39223;BME280;24936;46.328;11.026;2023-10-08T00:16:27;95308.75;;;8.82;100.00
39223;BME280;24936;46.328;11.026;2023-10-08T00:18:54;95311.25;;;8.97;100.00
39223;BME280;24936;46.328;11.026;2023-10-08T00:21:24;95330.34;;;8.99;100.00
39223;BME280;24936;46.328;11.026;2023-10-08T00:23:52;95319.19;;;9.08;100.00
39223;BME280;24936;46.328;11.026;2023-10-08T00:26:21;95311.81;;;9.13;100.00
39223;BME280;24936;46.328;11.026;2023-10-08T00:29:12;95306.56;;;9.13;100.00
39223;BME280;24936;46.328;11.026;2023-10-08T00:31:42;95308.16;;;9.03;100.00
39223;BME280;24936;46.328;11.026;2023-10-08T00:34:10;95296.72;;;9.04;100.00
39223;BME280;24936;46.328;11.026;2023-10-08T00:36:44;95308.28;;;9.01;100.00
39223;BME280;24936;46.328;11.026;2023-10-08T00:39:12;95300.22;;;8.92;100.00
39223;BME280;24936;46.328;11.026;2023-10-08T00:41:49;95297.25;;;8.96;100.00
39223;BME280;24936;46.328;11.026;2023-10-08T00:44:24;95304.06;;;8.99;100.00
39223;BME280;24936;46.328;11.026;2023-10-08T00:46:55;95300.63;;;8.98;100.00
39223;BME280;24936;46.328;11.026;2023-10-08T00:49:27;95304.94;;;8.86;100.00
39223;BME280;24936;46.328;11.026;2023-10-08T00:52:13;95305.41;;;8.80;100.00
39223;BME280;24936;46.328;11.026;2023-10-08T00:54:40;95301.56;;;8.97;100.00
39223;BME280;24936;46.328;11.026;2023-10-08T00:57:32;95299.28;;;8.93;100.00
39223;BME280;24936;46.328;11.026;2023-10-08T01:00:02;95298.22;;;8.95;100.00
39223;BME280;24936;46.328;11.026;2023-10-08T01:02:30;95280.03;;;8.92;100.00
39223;BME280;24936;46.328;11.026;2023-10-08T01:05:17;95287.22;;;8.90;100.00
39223;BME280;24936;46.328;11.026;2023-10-08T01:07:49;95290.25;;;8.97;100.00
39223;BME280;24936;46.328;11.026;2023-10-08T01:10:16;95275.28;;;9.10;100.00
39223;BME280;24936;46.328;11.026;2023-10-08T01:12:46;95271.72;;;9.11;100.00
39223;BME280;24936;46.328;11.026;2023-10-08T01:15:32;95273.94;;;9.05;100.00
39223;BME280;24936;46.328;11.026;2023-10-08T01:18:01;95285.06;;;9.08;100.00
39223;BME280;24936;46.328;11.026;2023-10-08T01:20:29;95275.75;;;9.15;100.00
39223;BME280;24936;46.328;11.026;2023-10-08T01:25:35;95275.56;;;9.18;100.00
39223;BME280;24936;46.328;11.026;2023-10-08T01:28:01;95275.81;;;9.27;100.00
39223;BME280;24936;46.328;11.026;2023-10-08T01:30:33;95274.16;;;9.26;100.00
39223;BME280;24936;46.328;11.026;2023-10-08T01:33:00;95270.34;;;9.30;100.00
39223;BME280;24936;46.328;11.026;2023-10-08T01:35:28;95280.50;;;9.34;100.00
39223;BME280;24936;46.328;11.026;2023-10-08T01:37:56;95287.22;;;9.39;100.00
39223;BME280;24936;46.328;11.026;2023-10-08T01:40:24;95288.19;;;9.38;100.00
39223;BME280;24936;46.328;11.026;2023-10-08T01:42:51;95280.50;;;9.34;100.00
39223;BME280;24936;46.328;11.026;2023-10-08T01:45:17;95275.50;;;9.31;100.00
39223;BME280;24936;46.328;11.026;2023-10-08T01:47:43;95276.34;;;9.32;100.00
39223;BME280;24936;46.328;11.026;2023-10-08T01:50:09;95264.63;;;9.25;100.00
39223;BME280;24936;46.328;11.026;2023-10-08T01:52:47;95268.97;;;9.13;100.00
39223;BME280;24936;46.328;11.026;2023-10-08T01:55:12;95270.13;;;9.09;100.00
39223;BME280;24936;46.328;11.026;2023-10-08T01:57:42;95262.25;;;9.09;100.00
39223;BME280;24936;46.328;11.026;2023-10-08T02:00:09;95256.44;;;9.16;100.00
39223;BME280;24936;46.328;11.026;2023-10-08T02:02:35;95261.03;;;9.26;100.00
39223;BME280;24936;46.328;11.026;2023-10-08T02:05:00;95254.94;;;9.25;100.00
39223;BME280;24936;46.328;11.026;2023-10-08T02:07:26;95249.31;;;9.54;100.00
39223;BME280;24936;46.328;11.026;2023-10-08T02:09:51;95237.72;;;9.57;100.00
39223;BME280;24936;46.328;11.026;2023-10-08T02:12:18;95259.84;;;9.66;100.00
39223;BME280;24936;46.328;11.026;2023-10-08T02:14:43;95247.50;;;9.55;100.00
39223;BME280;24936;46.328;11.026;2023-10-08T02:17:09;95252.16;;;9.51;100.00
39223;BME280;24936;46.328;11.026;2023-10-08T02:19:35;95251.72;;;9.57;100.00
39223;BME280;24936;46.328;11.026;2023-10-08T02:22:02;95244.41;;;9.49;100.00
39223;BME280;24936;46.328;11.026;2023-10-08T02:24:31;95250.06;;;9.32;100.00
39223;BME280;24936;46.328;11.026;2023-10-08T02:26:58;95253.06;;;9.39;100.00
39223;BME280;24936;46.328;11.026;2023-10-08T02:29:28;95253.06;;;9.39;100.00
39223;BME280;24936;46.328;11.026;2023-10-08T02:31:55;95260.31;;;9.24;100.00
39223;BME280;24936;46.328;11.026;2023-10-08T02:34:20;95252.38;;;9.12;100.00
39223;BME280;24936;46.328;11.026;2023-10-08T02:36:46;95263.75;;;9.00;100.00
39223;BME280;24936;46.328;11.026;2023-10-08T02:39:14;95251.34;;;9.02;100.00
39223;BME280;24936;46.328;11.026;2023-10-08T02:41:43;95243.47;;;9.02;100.00
39223;BME280;24936;46.328;11.026;2023-10-08T02:44:12;95260.56;;;8.83;100.00
39223;BME280;24936;46.328;11.026;2023-10-08T02:46:42;95265.56;;;8.86;100.00
39223;BME280;24936;46.328;11.026;2023-10-08T02:49:11;95241.41;;;8.94;100.00
39223;BME280;24936;46.328;11.026;2023-10-08T02:51:40;95242.06;;;8.85;100.00
39223;BME280;24936;46.328;11.026;2023-10-08T02:54:09;95260.72;;;8.69;100.00
39223;BME280;24936;46.328;11.026;2023-10-08T02:56:43;95255.88;;;8.63;100.00
39223;BME280;24936;46.328;11.026;2023-10-08T02:59:11;95247.09;;;8.51;100.00
39223;BME280;24936;46.328;11.026;2023-10-08T03:01:38;95260.41;;;8.61;100.00
39223;BME280;24936;46.328;11.026;2023-10-08T03:04:06;95248.41;;;8.69;100.00
39223;BME280;24936;46.328;11.026;2023-10-08T03:06:44;95245.56;;;8.72;100.00
39223;BME280;24936;46.328;11.026;2023-10-08T03:09:11;95253.94;;;8.78;100.00
39223;BME280;24936;46.328;11.026;2023-10-08T03:11:39;95255.06;;;8.86;100.00
39223;BME280;24936;46.328;11.026;2023-10-08T03:14:05;95241.47;;;8.81;100.00
39223;BME280;24936;46.328;11.026;2023-10-08T03:16:39;95241.56;;;8.80;100.00
39223;BME280;24936;46.328;11.026;2023-10-08T03:19:05;95243.91;;;8.71;100.00
39223;BME280;24936;46.328;11.026;2023-10-08T03:21:31;95246.84;;;8.67;100.00
39223;BME280;24936;46.328;11.026;2023-10-08T03:24:02;95240.34;;;8.60;100.00
39223;BME280;24936;46.328;11.026;2023-10-08T03:26:37;95236.16;;;8.44;100.00
39223;BME280;24936;46.328;11.026;2023-10-08T03:29:04;95243.31;;;8.42;100.00
39223;BME280;24936;46.328;11.026;2023-10-08T03:31:33;95250.56;;;8.51;100.00
39223;BME280;24936;46.328;11.026;2023-10-08T03:34:15;95248.22;;;8.60;100.00
39223;BME280;24936;46.328;11.026;2023-10-08T03:36:41;95245.53;;;8.48;100.00
39223;BME280;24936;46.328;11.026;2023-10-08T03:39:13;95252.34;;;8.38;100.00
39223;BME280;24936;46.328;11.026;2023-10-08T03:41:42;95245.63;;;8.47;100.00
39223;BME280;24936;46.328;11.026;2023-10-08T03:44:16;95239.34;;;8.49;100.00
39223;BME280;24936;46.328;11.026;2023-10-08T03:46:43;95243.19;;;8.44;100.00
39223;BME280;24936;46.328;11.026;2023-10-08T03:49:09;95246.06;;;8.27;100.00
39223;BME280;24936;46.328;11.026;2023-10-08T03:51:47;95246.69;;;8.18;100.00
39223;BME280;24936;46.328;11.026;2023-10-08T03:54:16;95253.09;;;8.14;100.00
39223;BME280;24936;46.328;11.026;2023-10-08T03:56:44;95254.78;;;8.02;100.00
39223;BME280;24936;46.328;11.026;2023-10-08T03:59:16;95250.47;;;8.01;100.00
39223;BME280;24936;46.328;11.026;2023-10-08T04:02:11;95251.94;;;8.18;100.00
39223;BME280;24936;46.328;11.026;2023-10-08T04:04:43;95248.97;;;8.36;100.00
39223;BME280;24936;46.328;11.026;2023-10-08T04:07:23;95242.78;;;8.50;100.00
39223;BME280;24936;46.328;11.026;2023-10-08T04:09:59;95237.94;;;8.44;100.00
39223;BME280;24936;46.328;11.026;2023-10-08T04:12:44;95236.81;;;8.22;100.00
39223;BME280;24936;46.328;11.026;2023-10-08T04:15:10;95247.00;;;8.26;100.00
39223;BME280;24936;46.328;11.026;2023-10-08T04:17:38;95243.53;;;8.39;100.00
39223;BME280;24936;46.328;11.026;2023-10-08T04:20:16;95239.63;;;8.32;100.00
39223;BME280;24936;46.328;11.026;2023-10-08T04:23:03;95246.56;;;8.33;100.00
39223;BME280;24936;46.328;11.026;2023-10-08T04:25:31;95255.16;;;8.35;100.00
39223;BME280;24936;46.328;11.026;2023-10-08T04:27:58;95242.25;;;8.32;100.00
39223;BME280;24936;46.328;11.026;2023-10-08T04:30:26;95240.38;;;8.34;100.00
39223;BME280;24936;46.328;11.026;2023-10-08T04:33:01;95237.75;;;8.34;100.00
39223;BME280;24936;46.328;11.026;2023-10-08T04:35:35;95240.81;;;8.27;100.00
39223;BME280;24936;46.328;11.026;2023-10-08T04:38:21;95241.84;;;8.38;100.00
39223;BME280;24936;46.328;11.026;2023-10-08T04:40:51;95238.91;;;8.30;100.00
39223;BME280;24936;46.328;11.026;2023-10-08T04:43:21;95237.66;;;8.22;100.00
39223;BME280;24936;46.328;11.026;2023-10-08T04:46:02;95243.53;;;8.26;100.00
39223;BME280;24936;46.328;11.026;2023-10-08T04:48:45;95248.16;;;8.35;100.00
39223;BME280;24936;46.328;11.026;2023-10-08T04:51:10;95246.25;;;8.37;100.00
39223;BME280;24936;46.328;11.026;2023-10-08T04:53:38;95239.31;;;8.36;100.00
39223;BME280;24936;46.328;11.026;2023-10-08T04:56:10;95250.44;;;8.40;100.00
39223;BME280;24936;46.328;11.026;2023-10-08T04:58:39;95242.78;;;8.50;100.00
39223;BME280;24936;46.328;11.026;2023-10-08T05:01:15;95241.00;;;8.37;100.00
39223;BME280;24936;46.328;11.026;2023-10-08T05:03:51;95247.28;;;8.35;100.00
39223;BME280;24936;46.328;11.026;2023-10-08T05:06:32;95249.09;;;8.34;100.00
39223;BME280;24936;46.328;11.026;2023-10-08T05:08:58;95253.81;;;8.29;100.00
39223;BME280;24936;46.328;11.026;2023-10-08T05:11:24;95263.59;;;8.14;100.00
39223;BME280;24936;46.328;11.026;2023-10-08T05:13:50;95257.19;;;8.05;100.00
39223;BME280;24936;46.328;11.026;2023-10-08T05:16:30;95257.59;;;8.12;100.00
39223;BME280;24936;46.328;11.026;2023-10-08T05:19:09;95273.34;;;8.12;100.00
39223;BME280;24936;46.328;11.026;2023-10-08T05:21:53;95270.28;;;8.18;100.00
39223;BME280;24936;46.328;11.026;2023-10-08T05:24:31;95261.56;;;8.31;100.00
39223;BME280;24936;46.328;11.026;2023-10-08T05:27:04;95258.00;;;8.32;100.00
39223;BME280;24936;46.328;11.026;2023-10-08T05:29:48;95271.84;;;8.34;100.00
39223;BME280;24936;46.328;11.026;2023-10-08T05:32:39;95263.88;;;8.35;100.00
39223;BME280;24936;46.328;11.026;2023-10-08T05:35:32;95271.13;;;8.32;100.00
39223;BME280;24936;46.328;11.026;2023-10-08T05:38:23;95261.81;;;8.27;100.00
39223;BME280;24936;46.328;11.026;2023-10-08T05:40:56;95271.44;;;8.27;100.00
39223;BME280;24936;46.328;11.026;2023-10-08T05:43:35;95280.88;;;8.30;100.00
39223;BME280;24936;46.328;11.026;2023-10-08T05:46:13;95271.31;;;8.41;100.00
39223;BME280;24936;46.328;11.026;2023-10-08T05:48:59;95276.88;;;8.50;100.00
39223;BME280;24936;46.328;11.026;2023-10-08T05:57:03;95272.78;;;8.71;100.00
39223;BME280;24936;46.328;11.026;2023-10-08T05:59:36;95280.84;;;8.81;100.00
39223;BME280;24936;46.328;11.026;2023-10-08T06:04:53;95276.22;;;9.09;100.00
39223;BME280;24936;46.328;11.026;2023-10-08T06:07:37;95276.50;;;9.17;100.00
39223;BME280;24936;46.328;11.026;2023-10-08T06:10:15;95273.91;;;9.29;100.00
39223;BME280;24936;46.328;11.026;2023-10-08T06:13:01;95279.00;;;9.43;100.00
39223;BME280;24936;46.328;11.026;2023-10-08T06:15:43;95269.25;;;9.57;100.00
39223;BME280;24936;46.328;11.026;2023-10-08T06:18:23;95279.81;;;9.68;100.00
39223;BME280;24936;46.328;11.026;2023-10-08T06:21:05;95285.69;;;9.72;100.00
39223;BME280;24936;46.328;11.026;2023-10-08T06:23:35;95302.28;;;9.72;100.00
39223;BME280;24936;46.328;11.026;2023-10-08T06:26:02;95286.69;;;9.82;100.00
39223;BME280;24936;46.328;11.026;2023-10-08T06:28:43;95299.78;;;10.06;100.00
39223;BME280;24936;46.328;11.026;2023-10-08T06:31:10;95296.44;;;10.27;100.00
39223;BME280;24936;46.328;11.026;2023-10-08T06:33:42;95290.50;;;10.36;100.00
39223;BME280;24936;46.328;11.026;2023-10-08T06:36:08;95292.28;;;10.36;100.00
39223;BME280;24936;46.328;11.026;2023-10-08T06:38:44;95292.25;;;10.24;100.00
39223;BME280;24936;46.328;11.026;2023-10-08T06:41:14;95305.19;;;10.16;100.00
39223;BME280;24936;46.328;11.026;2023-10-08T06:43:41;95303.59;;;10.14;100.00
39223;BME280;24936;46.328;11.026;2023-10-08T06:46:30;95315.31;;;10.09;100.00
39223;BME280;24936;46.328;11.026;2023-10-08T06:49:01;95312.00;;;10.30;100.00
39223;BME280;24936;46.328;11.026;2023-10-08T06:51:28;95302.47;;;10.40;100.00
39223;BME280;24936;46.328;11.026;2023-10-08T06:53:56;95307.72;;;10.40;100.00
39223;BME280;24936;46.328;11.026;2023-10-08T06:56:25;95307.03;;;10.50;100.00
39223;BME280;24936;46.328;11.026;2023-10-08T06:58:51;95305.59;;;10.68;100.00
39223;BME280;24936;46.328;11.026;2023-10-08T07:01:20;95307.97;;;10.83;100.00
39223;BME280;24936;46.328;11.026;2023-10-08T07:03:50;95308.94;;;10.82;100.00
39223;BME280;24936;46.328;11.026;2023-10-08T07:06:19;95292.16;;;10.94;100.00
39223;BME280;24936;46.328;11.026;2023-10-08T07:08:52;95291.41;;;11.15;100.00
39223;BME280;24936;46.328;11.026;2023-10-08T07:11:21;95292.69;;;11.32;100.00
39223;BME280;24936;46.328;11.026;2023-10-08T07:13:47;95288.75;;;11.26;100.00
39223;BME280;24936;46.328;11.026;2023-10-08T07:16:13;95290.44;;;11.27;100.00
39223;BME280;24936;46.328;11.026;2023-10-08T07:18:43;95294.41;;;11.54;100.00
39223;BME280;24936;46.328;11.026;2023-10-08T07:21:15;95284.09;;;11.62;100.00
39223;BME280;24936;46.328;11.026;2023-10-08T07:23:41;95279.41;;;11.66;100.00
39223;BME280;24936;46.328;11.026;2023-10-08T07:26:30;95279.53;;;11.86;100.00
39223;BME280;24936;46.328;11.026;2023-10-08T07:29:03;95267.72;;;12.22;100.00
39223;BME280;24936;46.328;11.026;2023-10-08T07:31:37;95263.97;;;12.46;100.00
39223;BME280;24936;46.328;11.026;2023-10-08T07:34:06;95258.03;;;12.64;100.00
39223;BME280;24936;46.328;11.026;2023-10-08T07:36:50;95254.50;;;12.84;100.00
39223;BME280;24936;46.328;11.026;2023-10-08T07:39:21;95253.84;;;12.92;100.00
39223;BME280;24936;46.328;11.026;2023-10-08T07:41:53;95264.56;;;13.00;100.00
39223;BME280;24936;46.328;11.026;2023-10-08T07:44:20;95255.25;;;13.06;100.00
39223;BME280;24936;46.328;11.026;2023-10-08T07:46:51;95251.81;;;13.15;100.00
39223;BME280;24936;46.328;11.026;2023-10-08T07:49:17;95259.34;;;13.30;100.00
39223;BME280;24936;46.328;11.026;2023-10-08T07:51:43;95256.00;;;13.28;100.00
39223;BME280;24936;46.328;11.026;2023-10-08T07:54:20;95259.03;;;13.33;100.00
39223;BME280;24936;46.328;11.026;2023-10-08T07:56:50;95265.31;;;13.22;100.00
39223;BME280;24936;46.328;11.026;2023-10-08T07:59:22;95266.97;;;13.33;100.00
39223;BME280;24936;46.328;11.026;2023-10-08T08:01:48;95262.13;;;13.38;100.00
39223;BME280;24936;46.328;11.026;2023-10-08T08:04:13;95256.44;;;13.43;100.00
39223;BME280;24936;46.328;11.026;2023-10-08T08:06:48;95249.06;;;13.46;100.00
39223;BME280;24936;46.328;11.026;2023-10-08T08:09:18;95259.81;;;13.65;100.00
39223;BME280;24936;46.328;11.026;2023-10-08T08:11:46;95259.22;;;13.81;100.00
39223;BME280;24936;46.328;11.026;2023-10-08T08:14:15;95263.50;;;14.01;100.00
39223;BME280;24936;46.328;11.026;2023-10-08T08:16:49;95266.84;;;14.13;100.00
39223;BME280;24936;46.328;11.026;2023-10-08T08:19:15;95262.97;;;14.07;100.00
39223;BME280;24936;46.328;11.026;2023-10-08T08:21:49;95260.28;;;14.27;100.00
39223;BME280;24936;46.328;11.026;2023-10-08T08:24:17;95262.47;;;14.42;100.00
39223;BME280;24936;46.328;11.026;2023-10-08T08:26:57;95263.72;;;14.47;100.00
39223;BME280;24936;46.328;11.026;2023-10-08T08:29:37;95260.63;;;14.52;100.00
39223;BME280;24936;46.328;11.026;2023-10-08T08:32:13;95261.41;;;14.62;100.00
39223;BME280;24936;46.328;11.026;2023-10-08T08:34:44;95257.66;;;14.93;100.00
39223;BME280;24936;46.328;11.026;2023-10-08T08:37:12;95239.66;;;15.24;100.00
39223;BME280;24936;46.328;11.026;2023-10-08T08:39:39;95239.13;;;15.75;100.00
39223;BME280;24936;46.328;11.026;2023-10-08T08:42:06;95232.44;;;16.07;100.00
39223;BME280;24936;46.328;11.026;2023-10-08T08:44:37;95222.59;;;16.26;100.00
39223;BME280;24936;46.328;11.026;2023-10-08T08:47:13;95213.13;;;16.92;100.00
39223;BME280;24936;46.328;11.026;2023-10-08T08:49:44;95203.47;;;18.25;100.00
39223;BME280;24936;46.328;11.026;2023-10-08T08:52:14;95211.84;;;19.65;100.00
39223;BME280;24936;46.328;11.026;2023-10-08T08:54:40;95209.22;;;20.71;100.00
39223;BME280;24936;46.328;11.026;2023-10-08T08:57:07;95207.78;;;21.72;100.00
39223;BME280;24936;46.328;11.026;2023-10-08T08:59:42;95205.22;;;22.64;100.00
39223;BME280;24936;46.328;11.026;2023-10-08T09:02:11;95209.22;;;22.75;100.00
39223;BME280;24936;46.328;11.026;2023-10-08T09:04:39;95198.81;;;22.37;100.00
39223;BME280;24936;46.328;11.026;2023-10-08T09:07:04;95210.63;;;23.19;100.00
39223;BME280;24936;46.328;11.026;2023-10-08T09:09:34;95217.31;;;23.30;100.00
39223;BME280;24936;46.328;11.026;2023-10-08T09:12:07;95204.78;;;23.51;100.00
39223;BME280;24936;46.328;11.026;2023-10-08T09:14:36;95189.75;;;23.90;100.00
39223;BME280;24936;46.328;11.026;2023-10-08T09:17:02;95187.66;;;25.71;100.00
39223;BME280;24936;46.328;11.026;2023-10-08T09:19:30;95188.28;;;26.05;100.00
39223;BME280;24936;46.328;11.026;2023-10-08T09:22:08;95189.50;;;26.78;90.12
39223;BME280;24936;46.328;11.026;2023-10-08T09:24:35;95182.84;;;26.81;92.83
39223;BME280;24936;46.328;11.026;2023-10-08T09:27:11;95179.88;;;26.20;93.17
39223;BME280;24936;46.328;11.026;2023-10-08T09:29:40;95174.00;;;26.30;97.07
39223;BME280;24936;46.328;11.026;2023-10-08T09:32:08;95171.53;;;26.91;97.77
39223;BME280;24936;46.328;11.026;2023-10-08T09:34:34;95165.56;;;27.56;84.25
39223;BME280;24936;46.328;11.026;2023-10-08T09:37:01;95169.56;;;26.98;81.79
39223;BME280;24936;46.328;11.026;2023-10-08T09:39:27;95163.13;;;27.17;86.31
39223;BME280;24936;46.328;11.026;2023-10-08T09:42:03;95161.53;;;28.01;65.79
39223;BME280;24936;46.328;11.026;2023-10-08T09:44:32;95167.50;;;27.91;64.68
39223;BME280;24936;46.328;11.026;2023-10-08T09:49:33;95159.84;;;28.43;72.60
39223;BME280;24936;46.328;11.026;2023-10-08T09:52:03;95157.19;;;29.07;78.69
39223;BME280;24936;46.328;11.026;2023-10-08T09:54:31;95159.91;;;28.95;63.74
39223;BME280;24936;46.328;11.026;2023-10-08T09:57:05;95158.06;;;28.36;68.87
39223;BME280;24936;46.328;11.026;2023-10-08T09:59:33;95157.31;;;28.05;72.94
39223;BME280;24936;46.328;11.026;2023-10-08T10:01:59;95154.06;;;27.42;78.79
39223;BME280;24936;46.328;11.026;2023-10-08T10:04:26;95139.69;;;27.30;82.32
39223;BME280;24936;46.328;11.026;2023-10-08T10:06:55;95148.00;;;27.89;69.42
39223;BME280;24936;46.328;11.026;2023-10-08T10:09:24;95153.84;;;27.86;58.62
39223;BME280;24936;46.328;11.026;2023-10-08T10:11:51;95140.38;;;27.98;77.90
39223;BME280;24936;46.328;11.026;2023-10-08T10:14:18;95137.34;;;26.84;84.59
39223;BME280;24936;46.328;11.026;2023-10-08T10:17:10;95147.13;;;27.65;72.63
39223;BME280;24936;46.328;11.026;2023-10-08T10:19:37;95139.00;;;28.67;65.21
39223;BME280;24936;46.328;11.026;2023-10-08T10:22:03;95140.09;;;27.76;60.79
39223;BME280;24936;46.328;11.026;2023-10-08T10:24:36;95132.13;;;27.20;82.99
39223;BME280;24936;46.328;11.026;2023-10-08T10:27:16;95127.38;;;25.97;93.93
39223;BME280;24936;46.328;11.026;2023-10-08T10:29:43;95112.69;;;25.29;100.00
39223;BME280;24936;46.328;11.026;2023-10-08T10:32:12;95112.25;;;24.93;100.00
39223;BME280;24936;46.328;11.026;2023-10-08T10:34:44;95113.16;;;24.67;100.00
39223;BME280;24936;46.328;11.026;2023-10-08T10:37:12;95124.13;;;24.65;100.00
39223;BME280;24936;46.328;11.026;2023-10-08T10:39:52;95120.53;;;24.19;100.00
39223;BME280;24936;46.328;11.026;2023-10-08T10:42:21;95115.25;;;25.17;100.00
39223;BME280;24936;46.328;11.026;2023-10-08T10:44:48;95123.72;;;25.59;89.99
39223;BME280;24936;46.328;11.026;2023-10-08T10:47:19;95109.25;;;27.23;79.68
39223;BME280;24936;46.328;11.026;2023-10-08T10:49:52;95111.31;;;27.70;82.79
39223;BME280;24936;46.328;11.026;2023-10-08T10:52:26;95098.56;;;26.97;95.52
39223;BME280;24936;46.328;11.026;2023-10-08T10:55:04;95101.34;;;26.35;95.76
39223;BME280;24936;46.328;11.026;2023-10-08T10:57:50;95093.84;;;26.55;97.73
39223;BME280;24936;46.328;11.026;2023-10-08T11:00:20;95092.78;;;26.56;85.30
39223;BME280;24936;46.328;11.026;2023-10-08T11:03:02;95087.22;;;27.07;86.05
39223;BME280;24936;46.328;11.026;2023-10-08T11:05:32;95088.91;;;28.17;64.76
39223;BME280;24936;46.328;11.026;2023-10-08T11:08:03;95087.09;;;29.11;64.44
39223;BME280;24936;46.328;11.026;2023-10-08T11:10:39;95092.28;;;29.87;61.86
39223;BME280;24936;46.328;11.026;2023-10-08T11:13:07;95079.50;;;29.54;59.18
39223;BME280;24936;46.328;11.026;2023-10-08T11:15:43;95076.97;;;29.18;57.22
39223;BME280;24936;46.328;11.026;2023-10-08T11:18:15;95091.47;;;29.41;57.87
39223;BME280;24936;46.328;11.026;2023-10-08T11:20:42;95075.09;;;28.54;59.80
39223;BME280;24936;46.328;11.026;2023-10-08T11:23:33;95062.75;;;29.28;71.79
39223;BME280;24936;46.328;11.026;2023-10-08T11:26:00;95051.72;;;27.76;72.14
39223;BME280;24936;46.328;11.026;2023-10-08T11:28:35;95056.47;;;25.39;100.00
39223;BME280;24936;46.328;11.026;2023-10-08T11:31:07;95053.66;;;25.85;100.00
39223;BME280;24936;46.328;11.026;2023-10-08T11:33:42;95051.16;;;25.64;100.00
39223;BME280;24936;46.328;11.026;2023-10-08T11:36:09;95044.97;;;26.26;100.00
39223;BME280;24936;46.328;11.026;2023-10-08T11:38:45;95041.41;;;26.51;100.00
39223;BME280;24936;46.328;11.026;2023-10-08T11:41:16;95032.94;;;27.27;89.80
39223;BME280;24936;46.328;11.026;2023-10-08T11:43:48;95033.34;;;27.55;96.71
39223;BME280;24936;46.328;11.026;2023-10-08T11:46:22;95049.00;;;29.01;70.77
39223;BME280;24936;46.328;11.026;2023-10-08T11:48:51;95038.03;;;29.07;67.24
39223;BME280;24936;46.328;11.026;2023-10-08T11:51:16;95034.69;;;28.00;82.13
39223;BME280;24936;46.328;11.026;2023-10-08T11:53:45;95028.94;;;25.69;100.00
39223;BME280;24936;46.328;11.026;2023-10-08T11:56:13;95026.38;;;27.35;88.26
39223;BME280;24936;46.328;11.026;2023-10-08T11:58:40;95021.91;;;26.31;90.55
39223;BME280;24936;46.328;11.026;2023-10-08T12:01:12;95017.44;;;25.99;100.00
39223;BME280;24936;46.328;11.026;2023-10-08T12:03:46;95015.78;;;24.90;100.00
39223;BME280;24936;46.328;11.026;2023-10-08T12:06:15;95007.22;;;24.61;100.00
39223;BME280;24936;46.328;11.026;2023-10-08T12:08:47;95018.00;;;24.09;100.00
39223;BME280;24936;46.328;11.026;2023-10-08T12:11:13;95003.78;;;23.55;100.00
39223;BME280;24936;46.328;11.026;2023-10-08T12:13:40;95000.06;;;23.56;100.00
39223;BME280;24936;46.328;11.026;2023-10-08T12:16:16;94995.97;;;23.33;100.00
39223;BME280;24936;46.328;11.026;2023-10-08T12:18:48;94998.63;;;23.60;100.00
39223;BME280;24936;46.328;11.026;2023-10-08T12:21:15;94997.16;;;23.37;100.00
39223;BME280;24936;46.328;11.026;2023-10-08T12:23:41;94996.75;;;23.27;100.00
39223;BME280;24936;46.328;11.026;2023-10-08T12:26:15;94991.97;;;23.02;100.00
39223;BME280;24936;46.328;11.026;2023-10-08T12:28:49;94991.00;;;23.23;100.00
39223;BME280;24936;46.328;11.026;2023-10-08T12:31:16;94990.16;;;23.36;100.00
39223;BME280;24936;46.328;11.026;2023-10-08T12:33:41;94993.19;;;23.06;100.00
39223;BME280;24936;46.328;11.026;2023-10-08T12:36:10;94984.72;;;22.89;100.00
39223;BME280;24936;46.328;11.026;2023-10-08T12:38:41;94985.34;;;22.98;100.00
39223;BME280;24936;46.328;11.026;2023-10-08T12:41:08;94993.41;;;23.11;100.00
39223;BME280;24936;46.328;11.026;2023-10-08T12:43:38;95002.53;;;23.24;100.00
39223;BME280;24936;46.328;11.026;2023-10-08T12:46:04;94998.75;;;22.91;100.00
39223;BME280;24936;46.328;11.026;2023-10-08T12:48:36;94997.50;;;22.80;100.00
39223;BME280;24936;46.328;11.026;2023-10-08T12:51:02;94990.72;;;23.78;100.00
39223;BME280;24936;46.328;11.026;2023-10-08T12:53:31;94993.28;;;23.40;100.00
39223;BME280;24936;46.328;11.026;2023-10-08T12:56:09;94982.63;;;25.79;100.00
39223;BME280;24936;46.328;11.026;2023-10-08T12:58:42;94974.00;;;24.87;100.00
39223;BME280;24936;46.328;11.026;2023-10-08T13:01:10;94969.13;;;25.28;100.00
39223;BME280;24936;46.328;11.026;2023-10-08T13:03:36;94962.38;;;26.14;100.00
39223;BME280;24936;46.328;11.026;2023-10-08T13:06:07;94974.03;;;26.94;100.00
39223;BME280;24936;46.328;11.026;2023-10-08T13:08:36;94965.50;;;26.78;100.00
39223;BME280;24936;46.328;11.026;2023-10-08T13:11:02;94960.84;;;26.36;100.00
39223;BME280;24936;46.328;11.026;2023-10-08T13:13:35;94970.22;;;26.34;100.00
39223;BME280;24936;46.328;11.026;2023-10-08T13:16:02;94967.63;;;25.64;100.00
39223;BME280;24936;46.328;11.026;2023-10-08T13:18:33;94971.94;;;26.47;100.00
39223;BME280;24936;46.328;11.026;2023-10-08T13:20:59;94978.19;;;25.85;100.00